Time;durP1;ratioP1;P1;durP2;ratioP2;P2;SDS_P1;SDS_P2;PMS_P1;PMS_P2;Temp;Humidity;BMP_temperature;BMP_pressure;BME280_temperature;BME280_humidity;BME280_pressure;Samples;Min_cycle;Max_cycle;Signal;HPM_P1;HPM_P2
2021/07/01 00:01:01;;;;;;;3.03;2.22;;;17.80;99.90;;;;;;4994076;28;20033;-91
2021/07/01 00:03:26;;;;;;;2.50;2.00;;;17.80;99.90;;;;;;4993920;28;20117;-91
2021/07/01 00:05:52;;;;;;;3.85;1.67;;;17.80;99.90;;;;;;4992993;28;20379;-91
2021/07/01 00:08:18;;;;;;;2.53;1.77;;;17.80;1.00;;;;;;4993411;28;20138;-91
2021/07/01 00:10:43;;;;;;;2.95;1.90;;;17.80;99.90;;;;;;4992303;28;20037;-90
2021/07/01 00:13:09;;;;;;;2.85;2.08;;;17.70;99.90;;;;;;4993956;28;20478;-91
2021/07/01 00:15:35;;;;;;;3.50;2.00;;;17.70;99.90;;;;;;4993017;28;20022;-92
2021/07/01 00:18:02;;;;;;;4.20;1.90;;;17.70;99.90;;;;;;4991994;28;20031;-91
2021/07/01 00:20:28;;;;;;;5.63;2.20;;;17.80;99.90;;;;;;4991908;28;20030;-92
2021/07/01 00:22:54;;;;;;;2.20;1.98;;;17.80;99.90;;;;;;4992497;28;20494;-91
2021/07/01 00:25:20;;;;;;;5.38;2.22;;;17.70;1.00;;;;;;4993629;28;20041;-91
2021/07/01 00:27:46;;;;;;;5.85;2.00;;;17.60;1.00;;;;;;4993571;28;20476;-91
2021/07/01 00:30:14;;;;;;;6.30;2.15;;;17.50;1.00;;;;;;4993490;28;20037;-91
2021/07/01 00:32:40;;;;;;;4.95;2.05;;;17.40;1.00;;;;;;4993063;28;20461;-91
2021/07/01 00:35:07;;;;;;;2.15;1.92;;;17.30;1.00;;;;;;4992811;28;20069;-91
2021/07/01 00:37:33;;;;;;;3.13;1.80;;;17.40;1.00;;;;;;4992313;28;20022;-91
2021/07/01 00:40:04;;;;;;;2.58;1.90;;;17.30;1.00;;;;;;4991739;28;20100;-91
2021/07/01 00:42:30;;;;;;;4.95;2.10;;;17.40;1.00;;;;;;4992255;28;20023;-91
2021/07/01 00:44:55;;;;;;;2.47;2.00;;;17.40;1.00;;;;;;4993419;28;20035;-91
2021/07/01 00:47:22;;;;;;;3.55;2.00;;;17.40;1.00;;;;;;4993223;28;20093;-91
2021/07/01 00:49:48;;;;;;;2.00;1.80;;;17.30;1.00;;;;;;4992715;28;20038;-91
2021/07/01 00:52:14;;;;;;;4.28;1.92;;;17.40;1.00;;;;;;4991964;28;20445;-90
2021/07/01 00:54:40;;;;;;;2.78;1.98;;;17.30;1.00;;;;;;4994445;28;20049;-90
2021/07/01 00:57:06;;;;;;;4.07;2.00;;;17.20;1.00;;;;;;4992178;28;20023;-91
2021/07/01 00:59:32;;;;;;;4.40;2.13;;;17.10;1.00;;;;;;4991625;28;20034;-91
2021/07/01 01:01:58;;;;;;;3.13;2.08;;;17.10;1.00;;;;;;4993057;28;20034;-91
2021/07/01 01:04:24;;;;;;;2.47;2.00;;;17.50;1.00;;;;;;4992118;28;20038;-90
2021/07/01 01:06:49;;;;;;;2.22;2.03;;;17.10;1.00;;;;;;4991188;28;20030;-91
2021/07/01 01:09:15;;;;;;;2.72;2.30;;;17.10;1.00;;;;;;4994752;28;20165;-91
2021/07/01 01:11:41;;;;;;;4.18;2.28;;;17.00;1.00;;;;;;4996729;28;20026;-91
2021/07/01 01:14:06;;;;;;;3.17;2.33;;;17.00;1.00;;;;;;4996715;28;20034;-91
2021/07/01 01:16:32;;;;;;;3.47;2.10;;;17.00;1.00;;;;;;4996155;28;20034;-90
2021/07/01 01:18:58;;;;;;;2.50;2.30;;;16.90;1.00;;;;;;4996180;28;20332;-90
2021/07/01 01:21:26;;;;;;;2.65;2.30;;;17.00;1.00;;;;;;4995573;28;20482;-90
2021/07/01 01:23:56;;;;;;;3.85;2.35;;;16.80;1.00;;;;;;4995172;28;20050;-91
2021/07/01 01:26:21;;;;;;;3.03;2.30;;;16.80;1.00;;;;;;4995116;28;20034;-90
2021/07/01 01:28:51;;;;;;;2.22;2.03;;;16.80;1.00;;;;;;4995310;28;20029;-91
2021/07/01 01:31:17;;;;;;;3.17;2.17;;;16.80;1.00;;;;;;4995221;28;20445;-90
2021/07/01 01:33:43;;;;;;;2.72;2.45;;;16.70;1.00;;;;;;4995425;28;20050;-91
2021/07/01 01:36:09;;;;;;;3.65;2.25;;;16.60;1.00;;;;;;4995127;28;20031;-91
2021/07/01 01:38:35;;;;;;;3.05;2.50;;;16.60;1.00;;;;;;4994835;28;20034;-90
2021/07/01 01:41:01;;;;;;;3.58;2.35;;;16.60;1.00;;;;;;4996090;28;20100;-90
2021/07/01 01:43:26;;;;;;;3.45;2.25;;;16.60;1.00;;;;;;4994755;28;20037;-90
2021/07/01 01:45:52;;;;;;;3.90;2.60;;;16.50;1.00;;;;;;4994385;28;20376;-90
2021/07/01 01:48:18;;;;;;;3.35;2.30;;;16.60;1.00;;;;;;4994907;28;20104;-91
2021/07/01 01:50:44;;;;;;;5.82;2.40;;;16.60;1.00;;;;;;4995618;28;20062;-90
2021/07/01 01:53:10;;;;;;;4.50;2.50;;;16.60;1.00;;;;;;4995866;28;20027;-90
2021/07/01 01:55:37;;;;;;;3.50;2.40;;;16.60;1.00;;;;;;4995706;28;20117;-91
2021/07/01 01:58:03;;;;;;;3.70;2.50;;;16.70;1.00;;;;;;4995787;28;20470;-90
2021/07/01 02:00:29;;;;;;;3.65;2.50;;;16.80;1.00;;;;;;4995421;28;20022;-90
2021/07/01 02:02:56;;;;;;;2.47;2.28;;;16.80;1.00;;;;;;5007345;28;20035;-90
2021/07/01 02:05:22;;;;;;;3.00;2.70;;;17.30;1.00;;;;;;4989192;28;20534;-90
2021/07/01 02:07:48;;;;;;;2.92;2.17;;;16.90;1.00;;;;;;4995232;28;20087;-90
2021/07/01 02:10:17;;;;;;;6.00;2.60;;;16.90;1.00;;;;;;4995633;28;20113;-89
2021/07/01 02:12:43;;;;;;;2.70;2.50;;;17.00;1.00;;;;;;4995926;28;20069;-91
2021/07/01 02:15:12;;;;;;;2.70;2.50;;;17.00;1.00;;;;;;4994276;28;20054;-90
2021/07/01 02:17:38;;;;;;;6.28;2.50;;;17.10;1.00;;;;;;4994227;28;20034;-90
2021/07/01 02:20:09;;;;;;;2.92;2.30;;;17.10;1.00;;;;;;4993248;28;20037;-90
2021/07/01 02:22:35;;;;;;;4.60;2.38;;;17.10;1.00;;;;;;4993177;28;20113;-90
2021/07/01 02:25:02;;;;;;;2.60;2.40;;;17.20;1.00;;;;;;4995461;28;20125;-90
2021/07/01 02:27:28;;;;;;;2.95;2.53;;;17.20;1.00;;;;;;4995770;28;20026;-89
2021/07/01 02:29:54;;;;;;;2.60;2.30;;;17.20;1.00;;;;;;4994918;28;20030;-90
2021/07/01 02:32:19;;;;;;;4.38;2.40;;;17.20;1.00;;;;;;4995240;28;20132;-91
2021/07/01 02:34:45;;;;;;;3.20;2.22;;;17.10;1.00;;;;;;4993814;28;20030;-90
2021/07/01 02:37:11;;;;;;;3.92;2.60;;;17.20;1.00;;;;;;4994216;28;20034;-90
2021/07/01 02:39:37;;;;;;;3.35;2.60;;;17.10;1.00;;;;;;4994168;28;20053;-90
2021/07/01 02:42:03;;;;;;;6.10;2.60;;;17.10;1.00;;;;;;5006506;28;20026;-90
2021/07/01 02:44:29;;;;;;;4.88;2.28;;;17.10;1.00;;;;;;4991015;28;20038;-90
2021/07/01 02:46:55;;;;;;;4.68;2.53;;;17.00;1.00;;;;;;4994627;28;20423;-89
2021/07/01 02:49:21;;;;;;;4.35;2.67;;;17.00;1.00;;;;;;4993503;28;20077;-90
2021/07/01 02:51:47;;;;;;;2.83;2.40;;;17.10;1.00;;;;;;4994997;28;20109;-91
2021/07/01 02:54:13;;;;;;;6.50;2.90;;;17.00;1.00;;;;;;4995404;28;20034;-90
2021/07/01 02:56:42;;;;;;;3.60;2.50;;;17.00;1.00;;;;;;4994361;28;20026;-91
2021/07/01 02:59:09;;;;;;;4.57;2.33;;;17.10;1.00;;;;;;4994323;28;20034;-90
2021/07/01 03:01:35;;;;;;;5.47;2.60;;;17.10;1.00;;;;;;4994563;28;20034;-90
2021/07/01 03:04:01;;;;;;;2.45;2.25;;;17.00;1.00;;;;;;4993190;28;20034;-90
2021/07/01 03:06:27;;;;;;;3.38;2.58;;;17.00;1.00;;;;;;4994754;28;20058;-90
2021/07/01 03:08:54;;;;;;;4.63;2.97;;;17.10;1.00;;;;;;4993363;28;20034;-90
2021/07/01 03:11:20;;;;;;;6.47;2.80;;;17.00;1.00;;;;;;4994146;28;20046;-90
2021/07/01 03:13:46;;;;;;;2.95;2.58;;;17.00;1.00;;;;;;4992885;28;20117;-90
2021/07/01 03:16:15;;;;;;;3.08;2.60;;;17.00;1.00;;;;;;4993295;28;20121;-90
2021/07/01 03:18:41;;;;;;;4.47;2.80;;;17.10;1.00;;;;;;4993088;28;20030;-90
2021/07/01 03:21:07;;;;;;;4.32;2.58;;;17.20;1.00;;;;;;4993470;28;20439;-90
2021/07/01 03:23:34;;;;;;;3.92;2.60;;;17.20;1.00;;;;;;4993775;28;20034;-90
2021/07/01 03:26:00;;;;;;;6.10;2.70;;;17.10;1.00;;;;;;4993634;28;20038;-89
2021/07/01 03:28:25;;;;;;;3.03;2.72;;;17.10;1.00;;;;;;4993761;28;20841;-90
2021/07/01 03:30:51;;;;;;;3.65;2.25;;;17.20;1.00;;;;;;4993545;28;20030;-90
2021/07/01 03:33:17;;;;;;;5.18;2.38;;;17.10;1.00;;;;;;4993021;28;20395;-90
2021/07/01 03:35:42;;;;;;;3.42;2.47;;;17.00;1.00;;;;;;4994624;28;20038;-90
2021/07/01 03:38:08;;;;;;;4.25;2.40;;;17.10;1.00;;;;;;4992480;28;20054;-90
2021/07/01 03:40:34;;;;;;;2.65;2.40;;;17.10;1.00;;;;;;4994469;28;20029;-90
2021/07/01 03:43:00;;;;;;;4.88;2.55;;;17.10;1.00;;;;;;4992865;28;20561;-88
2021/07/01 03:45:25;;;;;;;3.53;2.63;;;17.10;1.00;;;;;;4994132;28;20052;-89
2021/07/01 03:47:51;;;;;;;4.47;2.20;;;17.10;1.00;;;;;;4994182;28;20053;-90
2021/07/01 03:50:16;;;;;;;2.63;2.42;;;17.00;1.00;;;;;;4993825;28;20570;-90
2021/07/01 03:52:42;;;;;;;3.85;2.40;;;17.00;1.00;;;;;;4994558;28;20112;-90
2021/07/01 03:55:08;;;;;;;5.75;2.88;;;17.50;1.00;;;;;;4993072;28;20117;-90
2021/07/01 03:57:34;;;;;;;4.10;2.83;;;17.10;1.00;;;;;;4988232;28;20026;-90
2021/07/01 04:00:02;;;;;;;4.20;2.55;;;17.10;1.00;;;;;;4991988;28;20041;-90
2021/07/01 04:02:28;;;;;;;3.80;2.80;;;17.20;1.00;;;;;;4993874;28;20038;-90
2021/07/01 04:04:53;;;;;;;4.90;2.72;;;17.20;1.00;;;;;;4992085;28;20042;-89
2021/07/01 04:07:19;;;;;;;3.00;2.40;;;17.30;1.00;;;;;;4992746;28;20413;-88
2021/07/01 04:09:45;;;;;;;5.03;2.45;;;17.30;1.00;;;;;;4992741;28;20513;-87
2021/07/01 04:12:10;;;;;;;4.75;2.55;;;17.30;1.00;;;;;;4992132;28;20080;-87
2021/07/01 04:14:36;;;;;;;2.83;2.63;;;17.20;1.00;;;;;;4992464;28;20109;-87
2021/07/01 04:17:02;;;;;;;4.07;2.65;;;17.10;1.00;;;;;;4992267;28;20025;-87
2021/07/01 04:19:27;;;;;;;4.82;3.00;;;17.10;1.00;;;;;;4993140;28;20101;-87
2021/07/01 04:21:53;;;;;;;5.00;2.83;;;17.20;1.00;;;;;;4992006;28;20157;-87
2021/07/01 04:24:19;;;;;;;4.05;2.78;;;17.30;1.00;;;;;;4992214;28;20088;-86
2021/07/01 04:26:44;;;;;;;3.83;2.97;;;17.30;1.00;;;;;;4992870;28;20060;-88
2021/07/01 04:29:10;;;;;;;4.95;3.47;;;17.30;1.00;;;;;;4992588;28;20030;-88
2021/07/01 04:31:36;;;;;;;6.15;3.33;;;17.10;1.00;;;;;;4991411;28;20029;-88
2021/07/01 04:34:03;;;;;;;3.90;2.67;;;17.10;1.00;;;;;;4992510;28;20026;-88
2021/07/01 04:36:28;;;;;;;2.90;2.70;;;17.20;1.00;;;;;;4992940;28;20026;-88
2021/07/01 04:38:54;;;;;;;4.55;3.20;;;17.20;1.00;;;;;;4992890;28;20125;-87
2021/07/01 04:41:20;;;;;;;3.85;2.55;;;17.20;1.00;;;;;;5003849;28;20022;-88
2021/07/01 04:43:47;;;;;;;5.30;2.85;;;17.30;1.00;;;;;;4981746;28;20125;-92
2021/07/01 04:46:13;;;;;;;4.03;2.78;;;17.40;1.00;;;;;;4992365;28;20034;-88
2021/07/01 04:48:40;;;;;;;5.07;3.00;;;17.40;1.00;;;;;;4993124;28;20061;-91
2021/07/01 04:51:05;;;;;;;7.00;2.90;;;17.50;1.00;;;;;;5012261;28;20073;-91
2021/07/01 04:53:31;;;;;;;4.22;3.08;;;17.50;1.00;;;;;;4993362;28;20026;-91
2021/07/01 04:55:57;;;;;;;4.63;3.30;;;17.60;1.00;;;;;;4992820;28;20034;-91
2021/07/01 04:58:22;;;;;;;5.95;3.50;;;17.40;1.00;;;;;;4992767;28;20018;-92
2021/07/01 05:00:48;;;;;;;3.67;2.92;;;17.50;1.00;;;;;;4991812;28;20030;-91
2021/07/01 05:03:14;;;;;;;7.28;2.97;;;17.60;1.00;;;;;;4992187;28;20018;-91
2021/07/01 05:05:40;;;;;;;7.97;3.33;;;17.70;1.00;;;;;;4992156;28;20038;-91
2021/07/01 05:08:06;;;;;;;5.82;3.10;;;17.70;1.00;;;;;;4990881;28;20660;-91
2021/07/01 05:10:31;;;;;;;4.10;3.28;;;17.70;1.00;;;;;;4992828;28;20113;-91
2021/07/01 05:12:58;;;;;;;7.50;3.35;;;17.70;1.00;;;;;;4992572;28;20597;-91
2021/07/01 05:15:24;;;;;;;7.03;3.42;;;17.80;1.00;;;;;;4980719;28;20476;-90
2021/07/01 05:17:49;;;;;;;7.90;3.60;;;17.70;1.00;;;;;;4991415;28;20033;-92
2021/07/01 05:20:15;;;;;;;3.78;3.03;;;17.70;1.00;;;;;;4992581;28;20110;-91
2021/07/01 05:22:40;;;;;;;4.38;3.17;;;17.70;1.00;;;;;;4992669;28;20057;-91
2021/07/01 05:25:07;;;;;;;9.20;3.33;;;17.70;1.00;;;;;;4992778;28;20034;-92
2021/07/01 05:27:33;;;;;;;3.88;3.40;;;17.70;1.00;;;;;;4992102;28;20419;-92
2021/07/01 05:29:58;;;;;;;5.80;3.20;;;17.60;1.00;;;;;;4991763;28;20121;-92
2021/07/01 05:32:24;;;;;;;10.52;3.55;;;17.50;1.00;;;;;;4991761;28;20037;-92
2021/07/01 05:34:49;;;;;;;5.93;3.42;;;17.50;1.00;;;;;;4991585;28;20031;-91
2021/07/01 05:37:15;;;;;;;8.02;3.63;;;17.50;1.00;;;;;;4991705;28;20424;-92
2021/07/01 05:39:41;;;;;;;5.95;3.40;;;17.50;1.00;;;;;;5005282;28;20030;-92
2021/07/01 05:42:07;;;;;;;8.88;3.55;;;17.50;1.00;;;;;;4991565;28;20030;-92
2021/07/01 05:44:33;;;;;;;4.85;3.45;;;17.50;1.00;;;;;;5012427;28;20474;-91
2021/07/01 05:46:59;;;;;;;5.28;3.58;;;17.60;1.00;;;;;;4992391;28;20035;-91
2021/07/01 05:49:24;;;;;;;5.65;3.70;;;17.40;1.00;;;;;;4993169;28;20034;-91
2021/07/01 05:51:55;;;;;;;4.50;3.75;;;17.40;1.00;;;;;;4991649;28;20062;-92
2021/07/01 05:54:33;;;;;;;10.38;4.10;;;17.40;1.00;;;;;;4991686;28;20062;-91
2021/07/01 05:56:59;;;;;;;4.65;3.50;;;17.60;1.00;;;;;;4994499;28;20038;-92
2021/07/01 05:59:25;;;;;;;5.18;3.63;;;17.70;1.00;;;;;;4996237;28;20110;-92
2021/07/01 06:01:51;;;;;;;7.38;3.90;;;17.70;1.00;;;;;;4995912;28;20030;-92
2021/07/01 06:04:17;;;;;;;5.25;3.45;;;17.70;1.00;;;;;;4996591;28;20106;-92
2021/07/01 06:06:48;;;;;;;3.85;3.42;;;17.80;1.00;;;;;;4996332;28;20121;-91
2021/07/01 06:09:15;;;;;;;6.30;3.97;;;17.80;1.00;;;;;;4995709;28;20022;-91
2021/07/01 06:11:42;;;;;;;4.63;4.05;;;17.90;1.00;;;;;;4995515;28;20031;-92
2021/07/01 06:14:07;;;;;;;6.25;4.25;;;17.90;1.00;;;;;;4995544;28;20077;-92
2021/07/01 06:16:35;;;;;;;6.63;4.30;;;18.00;1.00;;;;;;4996823;28;20030;-92
2021/07/01 06:19:03;;;;;;;7.40;4.38;;;18.10;1.00;;;;;;4996545;28;20026;-92
2021/07/01 06:21:29;;;;;;;7.13;4.30;;;18.20;1.00;;;;;;4996164;28;20129;-91
2021/07/01 06:23:56;;;;;;;6.07;4.57;;;18.20;1.00;;;;;;4995983;28;20053;-91
2021/07/01 06:26:28;;;;;;;8.57;4.78;;;18.30;1.00;;;;;;4995655;28;20475;-93
2021/07/01 06:28:55;;;;;;;6.55;4.85;;;18.50;1.00;;;;;;4995803;28;20042;-92
2021/07/01 06:31:20;;;;;;;5.07;4.55;;;18.50;1.00;;;;;;4994783;28;20027;-92
2021/07/01 06:33:47;;;;;;;5.68;4.38;;;18.60;1.00;;;;;;4994614;28;20041;-92
2021/07/01 06:36:13;;;;;;;5.22;4.22;;;18.60;1.00;;;;;;4996189;28;20077;-91
2021/07/01 06:38:43;;;;;;;9.27;4.63;;;18.50;1.00;;;;;;4994707;28;20376;-92
2021/07/01 06:41:09;;;;;;;7.40;4.88;;;18.60;1.00;;;;;;4995400;28;20026;-92
2021/07/01 06:43:36;;;;;;;6.57;5.53;;;18.60;1.00;;;;;;4995374;28;20022;-92
2021/07/01 06:46:04;;;;;;;9.15;4.85;;;18.70;1.00;;;;;;4994620;28;20428;-91
2021/07/01 06:48:30;;;;;;;6.63;5.32;;;18.90;1.00;;;;;;4995918;28;20093;-91
2021/07/01 06:51:00;;;;;;;6.93;5.15;;;18.90;1.00;;;;;;4994880;28;20034;-90
2021/07/01 06:53:27;;;;;;;7.05;5.32;;;18.80;1.00;;;;;;4991462;28;20030;-94
2021/07/01 06:55:53;;;;;;;8.48;5.15;;;18.70;1.00;;;;;;4995306;28;20109;-91
2021/07/01 06:58:20;;;;;;;5.90;5.15;;;18.70;1.00;;;;;;4996686;28;20030;-96
2021/07/01 07:00:48;;;;;;;7.35;4.70;;;18.70;1.00;;;;;;4999151;28;20107;-93
2021/07/01 07:03:19;;;;;;;6.80;5.32;;;18.90;1.00;;;;;;4996734;28;20074;-96
2021/07/01 07:05:48;;;;;;;6.85;5.05;;;19.00;1.00;;;;;;4997436;28;20049;-96
2021/07/01 07:08:14;;;;;;;6.10;5.38;;;18.90;1.00;;;;;;4993933;28;20022;-92
2021/07/01 07:10:43;;;;;;;6.55;5.65;;;18.80;1.00;;;;;;4994095;28;20034;-92
2021/07/01 07:13:09;;;;;;;6.93;5.90;;;18.90;1.00;;;;;;4980158;28;20117;-93
2021/07/01 07:15:34;;;;;;;6.25;5.63;;;18.80;1.00;;;;;;5015374;28;20073;-92
2021/07/01 07:18:20;;;;;;;5.30;4.80;;;18.90;1.00;;;;;;4993801;28;20028;-92
2021/07/01 07:20:51;;;;;;;5.03;4.53;;;18.90;1.00;;;;;;4995069;28;20506;-93
2021/07/01 07:23:19;;;;;;;6.07;4.95;;;19.10;1.00;;;;;;4993483;28;20446;-93
2021/07/01 07:25:46;;;;;;;6.55;5.53;;;19.30;1.00;;;;;;4995055;28;20046;-92
2021/07/01 07:28:12;;;;;;;8.10;4.82;;;19.20;1.00;;;;;;4993559;28;20053;-93
2021/07/01 07:30:39;;;;;;;6.28;5.05;;;19.20;1.00;;;;;;4994509;28;20034;-93
2021/07/01 07:33:07;;;;;;;6.07;5.03;;;19.40;1.00;;;;;;4993709;28;20023;-93
2021/07/01 07:35:34;;;;;;;6.25;4.65;;;19.40;1.00;;;;;;4994786;28;20451;-93
2021/07/01 07:38:02;;;;;;;6.15;4.55;;;19.40;1.00;;;;;;4993187;28;20026;-93
2021/07/01 07:40:28;;;;;;;6.22;4.55;;;19.50;1.00;;;;;;4994505;28;20418;-93
2021/07/01 07:42:54;;;;;;;7.53;4.20;;;19.60;1.00;;;;;;4994068;28;20023;-92
2021/07/01 07:45:20;;;;;;;8.45;4.40;;;19.70;1.00;;;;;;4994765;28;20145;-93
2021/07/01 07:47:46;;;;;;;6.60;3.72;;;19.80;1.00;;;;;;4994131;28;20052;-93
2021/07/01 07:50:13;;;;;;;5.82;4.40;;;19.90;99.90;;;;;;4993002;28;20073;-93
2021/07/01 07:52:48;;;;;;;6.00;3.88;;;20.00;99.90;;;;;;4993242;28;20022;-93
2021/07/01 07:55:16;;;;;;;5.72;3.92;;;19.90;99.90;;;;;;4978307;28;20125;-92
2021/07/01 07:57:48;;;;;;;4.97;4.18;;;19.90;99.90;;;;;;4996743;28;20033;-96
2021/07/01 08:00:14;;;;;;;5.22;3.58;;;19.90;99.90;;;;;;4998030;28;20034;-94
2021/07/01 08:02:52;;;;;;;5.00;3.88;;;20.00;99.90;;;;;;4995100;28;20022;-95
2021/07/01 08:05:23;;;;;;;6.07;3.50;;;20.20;99.90;;;;;;4996594;28;20038;-96
2021/07/01 08:07:50;;;;;;;3.95;3.17;;;20.40;99.90;;;;;;4995236;28;20145;-95
2021/07/01 08:10:19;;;;;;;3.20;2.90;;;20.50;99.90;;;;;;4994727;28;20034;-95
2021/07/01 08:12:49;;;;;;;4.15;2.58;;;20.60;99.90;;;;;;4996036;28;20029;-94
2021/07/01 08:15:18;;;;;;;3.60;2.50;;;20.50;99.90;;;;;;4994476;28;20057;-94
2021/07/01 08:17:46;;;;;;;4.95;3.38;;;20.70;99.90;;;;;;4993764;28;20038;-96
2021/07/01 08:20:14;;;;;;;3.10;2.80;;;20.80;99.90;;;;;;4994598;28;20042;-95
2021/07/01 08:22:46;;;;;;;2.72;2.53;;;20.80;99.90;;;;;;4998998;28;20045;-96
2021/07/01 08:25:15;;;;;;;3.80;2.88;;;20.70;99.90;;;;;;4999075;28;20061;-96
2021/07/01 08:27:42;;;;;;;3.15;2.55;;;20.80;99.90;;;;;;4984672;28;20115;-96
2021/07/01 08:30:34;;;;;;;3.45;2.78;;;21.00;99.90;;;;;;4985082;28;20037;-96
2021/07/01 08:33:03;;;;;;;2.53;2.10;;;21.10;99.90;;;;;;4999642;28;20045;-96
2021/07/01 08:35:39;;;;;;;3.50;2.90;;;21.40;99.90;;;;;;4988020;28;20463;-96
2021/07/01 08:38:05;;;;;;;6.55;2.90;;;21.40;99.90;;;;;;4994433;28;20545;-94
2021/07/01 08:40:34;;;;;;;3.20;2.47;;;21.50;99.90;;;;;;4993203;28;20030;-93
2021/07/01 08:43:01;;;;;;;3.58;2.00;;;21.60;99.90;;;;;;4993431;28;20034;-94
2021/07/01 08:45:50;;;;;;;2.03;1.90;;;21.90;99.90;;;;;;4992809;28;20042;-93
2021/07/01 08:48:23;;;;;;;1.67;1.45;;;22.10;99.90;;;;;;4992018;28;20518;-94
2021/07/01 08:50:57;;;;;;;2.13;1.92;;;22.10;99.90;;;;;;4993124;28;20454;-92
2021/07/01 08:54:10;;;;;;;2.00;1.80;;;22.10;99.90;;;;;;4995126;28;20085;-93
2021/07/01 08:56:37;;;;;;;2.05;1.90;;;22.10;99.90;;;;;;4939644;29;20023;-93
2021/07/01 08:59:05;;;;;;;4.47;2.30;;;22.00;99.90;;;;;;4938928;29;20213;-93
2021/07/01 09:01:31;;;;;;;2.38;2.17;;;22.00;99.90;;;;;;4937404;29;20122;-93
2021/07/01 09:03:58;;;;;;;2.22;2.10;;;21.80;99.90;;;;;;4918914;29;20132;-93
2021/07/01 09:06:25;;;;;;;3.63;2.10;;;21.90;99.90;;;;;;4938994;29;20036;-94
2021/07/01 09:08:53;;;;;;;2.95;2.35;;;22.00;99.90;;;;;;4937730;29;20127;-93
2021/07/01 09:11:20;;;;;;;5.32;2.63;;;22.20;99.90;;;;;;4938282;29;20059;-94
2021/07/01 09:13:48;;;;;;;3.28;2.67;;;22.50;99.90;;;;;;4922207;29;20063;-93
2021/07/01 09:16:16;;;;;;;4.28;2.70;;;22.60;99.90;;;;;;4933823;29;20567;-93
2021/07/01 09:18:44;;;;;;;3.47;2.35;;;22.50;99.90;;;;;;4921770;29;20027;-94
2021/07/01 09:21:12;;;;;;;4.63;2.75;;;22.50;99.90;;;;;;4929442;29;20070;-94
2021/07/01 09:23:45;;;;;;;3.30;2.63;;;23.00;99.90;;;;;;4922066;29;20036;-94
2021/07/01 09:26:20;;;;;;;2.75;2.10;;;23.20;99.90;;;;;;4930593;29;20036;-93
2021/07/01 09:28:50;;;;;;;2.70;2.30;;;23.80;99.90;;;;;;4921400;29;20023;-93
2021/07/01 09:31:18;;;;;;;2.67;2.10;;;23.90;99.90;;;;;;4988576;28;20046;-93
2021/07/01 09:33:45;;;;;;;3.22;2.00;;;24.20;99.90;;;;;;4997889;28;20041;-93
2021/07/01 09:36:13;;;;;;;3.15;1.90;;;24.60;99.90;;;;;;4996025;28;20475;-93
2021/07/01 09:38:42;;;;;;;2.30;2.05;;;24.80;99.90;;;;;;4995972;28;20479;-93
2021/07/01 09:41:08;;;;;;;3.25;1.77;;;25.10;99.90;;;;;;4995637;28;20023;-93
2021/07/01 09:43:34;;;;;;;1.98;1.77;;;25.70;99.90;;;;;;4997295;28;20037;-94
2021/07/01 09:46:03;;;;;;;2.05;1.52;;;25.90;99.90;;;;;;4996528;28;20046;-93
2021/07/01 09:48:33;;;;;;;1.95;1.67;;;26.20;99.90;;;;;;4997292;28;20050;-93
2021/07/01 09:51:03;;;;;;;4.85;1.95;;;26.40;99.90;;;;;;4996595;28;20041;-94
2021/07/01 09:53:34;;;;;;;4.72;1.95;;;26.20;99.90;;;;;;4996565;28;20023;-93
2021/07/01 09:56:05;;;;;;;1.80;1.70;;;26.20;99.90;;;;;;4995624;28;20542;-93
2021/07/01 09:58:36;;;;;;;2.05;1.83;;;26.10;99.90;;;;;;4996554;28;20501;-94
2021/07/01 10:01:01;;;;;;;3.03;2.10;;;26.00;99.90;;;;;;4995781;28;20031;-94
2021/07/01 10:03:27;;;;;;;2.08;1.90;;;25.90;99.90;;;;;;4996574;28;20417;-93
2021/07/01 10:05:53;;;;;;;1.70;1.60;;;26.00;99.90;;;;;;4995141;28;20049;-93
2021/07/01 10:08:18;;;;;;;2.58;1.95;;;26.00;99.90;;;;;;4994582;28;20379;-94
2021/07/01 10:10:46;;;;;;;2.00;1.80;;;25.90;99.90;;;;;;4995846;28;20034;-93
2021/07/01 10:13:13;;;;;;;1.83;1.70;;;26.40;99.90;;;;;;4995959;28;20117;-92
2021/07/01 10:15:40;;;;;;;2.75;1.80;;;26.70;99.90;;;;;;4997059;28;20026;-93
2021/07/01 10:18:19;;;;;;;2.13;1.88;;;27.00;99.90;;;;;;4995655;28;20030;-93
2021/07/01 10:20:47;;;;;;;2.60;1.50;;;27.40;99.90;;;;;;4994781;28;20065;-94
2021/07/01 10:23:30;;;;;;;1.85;1.75;;;27.40;99.90;;;;;;4995654;28;20049;-94
2021/07/01 10:25:58;;;;;;;1.92;1.83;;;27.50;99.90;;;;;;4996079;28;20507;-94
2021/07/01 10:28:26;;;;;;;2.03;1.88;;;27.20;99.90;;;;;;4995026;28;20054;-94
2021/07/01 10:31:01;;;;;;;3.35;1.90;;;27.30;99.90;;;;;;4995877;28;20453;-93
2021/07/01 10:33:32;;;;;;;2.13;2.00;;;27.10;99.90;;;;;;4995679;28;20038;-94
2021/07/01 10:36:01;;;;;;;2.30;1.70;;;26.80;99.90;;;;;;4994853;28;20399;-94
2021/07/01 10:38:27;;;;;;;2.00;1.80;;;26.80;99.90;;;;;;4995632;28;20034;-94
2021/07/01 10:40:56;;;;;;;1.85;1.75;;;27.00;99.90;;;;;;4995658;28;20030;-93
2021/07/01 10:43:42;;;;;;;2.85;1.55;;;27.30;99.90;;;;;;4994071;28;20045;-93
2021/07/01 10:46:08;;;;;;;1.83;1.70;;;27.40;99.90;;;;;;4981133;28;20093;-94
2021/07/01 10:48:34;;;;;;;3.10;1.90;;;27.30;99.90;;;;;;4991851;28;20047;-94
2021/07/01 10:51:28;;;;;;;1.60;1.50;;;27.30;99.90;;;;;;4994228;28;20034;-93
2021/07/01 10:54:13;;;;;;;1.75;1.63;;;27.40;99.90;;;;;;4994228;28;20038;-94
2021/07/01 10:56:45;;;;;;;2.33;1.67;;;27.60;99.90;;;;;;4994457;28;20024;-94
2021/07/01 10:59:12;;;;;;;2.83;1.63;;;27.40;99.90;;;;;;4994184;28;20034;-94
2021/07/01 11:01:43;;;;;;;1.70;1.60;;;27.40;99.90;;;;;;4995507;28;20454;-94
2021/07/01 11:04:14;;;;;;;1.88;1.73;;;27.90;99.90;;;;;;4980793;28;20043;-94
2021/07/01 11:06:41;;;;;;;2.05;1.63;;;27.70;99.90;;;;;;4994748;28;20038;-94
2021/07/01 11:09:09;;;;;;;1.70;1.60;;;27.10;99.90;;;;;;4994092;28;20360;-94
2021/07/01 11:11:38;;;;;;;1.85;1.65;;;27.20;99.90;;;;;;4994666;28;20465;-93
2021/07/01 11:14:07;;;;;;;2.58;1.60;;;27.40;99.90;;;;;;4994854;28;20026;-94
2021/07/01 11:16:33;;;;;;;1.77;1.60;;;27.20;99.90;;;;;;4995909;28;20072;-94
2021/07/01 11:18:58;;;;;;;1.50;1.40;;;27.40;99.90;;;;;;4993858;28;20528;-93
2021/07/01 11:21:24;;;;;;;1.77;1.67;;;27.20;99.90;;;;;;4994467;28;20030;-93
2021/07/01 11:24:07;;;;;;;1.70;1.60;;;26.80;99.90;;;;;;4993597;28;20030;-93
2021/07/01 11:26:33;;;;;;;2.55;1.85;;;27.00;99.90;;;;;;4993715;28;20541;-94
2021/07/01 11:29:03;;;;;;;2.13;1.85;;;27.30;99.90;;;;;;4995308;28;20499;-93
2021/07/01 11:31:36;;;;;;;1.67;1.58;;;27.80;99.90;;;;;;4993745;28;20038;-94
2021/07/01 11:34:02;;;;;;;3.30;1.70;;;27.50;99.90;;;;;;4993668;28;20026;-93
2021/07/01 11:36:29;;;;;;;2.38;1.70;;;27.40;99.90;;;;;;4994361;28;20022;-94
2021/07/01 11:39:15;;;;;;;2.72;1.45;;;27.50;99.90;;;;;;4994232;28;20065;-94
2021/07/01 11:41:43;;;;;;;1.65;1.55;;;27.90;99.90;;;;;;4992735;28;20117;-94
2021/07/01 11:44:11;;;;;;;1.70;1.60;;;28.00;99.90;;;;;;4994202;28;20603;-94
2021/07/01 11:46:41;;;;;;;2.58;1.77;;;27.90;99.90;;;;;;4994409;28;20515;-94
2021/07/01 11:49:07;;;;;;;2.42;1.90;;;27.70;99.90;;;;;;4978953;28;20537;-94
2021/07/01 11:51:34;;;;;;;1.98;1.60;;;27.40;99.90;;;;;;4995379;28;20549;-94
2021/07/01 11:54:00;;;;;;;1.75;1.40;;;27.80;99.90;;;;;;4994133;28;20034;-93
2021/07/01 11:56:26;;;;;;;2.70;1.60;;;28.10;99.90;;;;;;4994047;28;20511;-93
2021/07/01 11:58:52;;;;;;;1.50;1.40;;;27.80;99.90;;;;;;4994511;28;20057;-94
2021/07/01 12:01:19;;;;;;;1.58;1.48;;;27.90;99.90;;;;;;4993449;28;20054;-94
2021/07/01 12:03:49;;;;;;;1.65;1.40;;;28.40;99.90;;;;;;4993191;28;20481;-94
2021/07/01 12:06:31;;;;;;;1.73;1.50;;;28.70;99.90;;;;;;4993261;28;20030;-93
2021/07/01 12:08:57;;;;;;;2.17;1.27;;;28.60;99.90;;;;;;4993995;28;20466;-94
2021/07/01 12:11:23;;;;;;;1.67;1.38;;;29.40;99.90;;;;;;4992216;28;20030;-93
2021/07/01 12:13:49;;;;;;;1.45;1.35;;;29.60;99.90;;;;;;4994222;28;20031;-93
2021/07/01 12:16:16;;;;;;;2.47;1.40;;;30.30;99.90;;;;;;4996711;28;20057;-93
2021/07/01 12:18:45;;;;;;;1.20;1.20;;;30.30;99.90;;;;;;4994738;28;20113;-94
2021/07/01 12:21:14;;;;;;;1.80;1.60;;;31.60;99.90;;;;;;4993608;28;20490;-94
2021/07/01 12:23:45;;;;;;;2.00;1.40;;;32.90;99.90;;;;;;4994359;28;20033;-94
2021/07/01 12:26:36;;;;;;;1.50;1.40;;;33.80;99.90;;;;;;4992226;28;20129;-94
2021/07/01 12:29:08;;;;;;;2.05;1.27;;;33.20;99.90;;;;;;4993471;28;20050;-94
2021/07/01 12:31:35;;;;;;;1.45;1.35;;;34.50;99.90;;;;;;4993774;28;20037;-93
2021/07/01 12:34:04;;;;;;;2.42;1.30;;;34.50;99.90;;;;;;4993361;28;20034;-94
2021/07/01 12:36:43;;;;;;;2.15;1.42;;;35.10;99.90;;;;;;4994289;28;20068;-94
2021/07/01 12:41:38;;;;;;;2.90;1.45;;;34.50;99.90;;;;;;4993484;28;20038;-94
2021/07/01 12:44:14;;;;;;;1.45;1.35;;;34.30;99.90;;;;;;4993415;28;20570;-94
2021/07/01 12:46:45;;;;;;;1.52;1.42;;;34.20;99.90;;;;;;4993944;28;20764;-94
2021/07/01 12:49:28;;;;;;;1.67;1.40;;;33.80;99.90;;;;;;4978356;28;20128;-93
2021/07/01 12:51:54;;;;;;;1.38;1.27;;;33.40;99.90;;;;;;4993142;28;20394;-94
2021/07/01 12:54:23;;;;;;;1.50;1.25;;;31.50;99.90;;;;;;4993959;28;20050;-93
2021/07/01 12:56:52;;;;;;;2.35;1.30;;;31.60;99.90;;;;;;4993252;28;20516;-94
2021/07/01 12:59:18;;;;;;;1.50;1.30;;;33.00;99.90;;;;;;4991927;28;20023;-94